createdAt,value
2018-07-28T00:02:22.560Z,101219.34
2018-07-28T00:04:51.247Z,101211.83
2018-07-28T00:07:19.934Z,101215.09
2018-07-28T00:09:48.617Z,101212.62
2018-07-28T00:12:17.309Z,101212.52
2018-07-28T00:14:45.903Z,101205.56
2018-07-28T00:17:14.482Z,101203.15
2018-07-28T00:19:43.763Z,101200.25
2018-07-28T00:22:12.332Z,101197.47
2018-07-28T00:24:40.926Z,101197.13
2018-07-28T00:27:09.558Z,101193.30
2018-07-28T00:29:38.199Z,101195.56
2018-07-28T00:32:07.012Z,101195.08
2018-07-28T00:34:35.775Z,101189.55
2018-07-28T00:37:04.461Z,101191.25
2018-07-28T00:39:32.986Z,101189.55
2018-07-28T00:42:01.731Z,101183.11
2018-07-28T00:44:31.091Z,101188.83
2018-07-28T00:46:59.723Z,101187.62
2018-07-28T00:49:28.396Z,101184.92
2018-07-28T00:51:57.080Z,101179.27
2018-07-28T00:54:25.767Z,101178.98
2018-07-28T00:56:54.452Z,101181.39
2018-07-28T00:59:23.752Z,101172.66
2018-07-28T01:01:52.363Z,101176.69
2018-07-28T01:04:20.947Z,101166.22
2018-07-28T01:06:49.586Z,101164.81
2018-07-28T01:09:18.187Z,101169.03
2018-07-28T01:11:46.694Z,101161.24
2018-07-28T01:14:15.291Z,101168.25
2018-07-28T01:16:43.934Z,101167.47
2018-07-28T01:19:12.519Z,101169.44
2018-07-28T01:21:41.018Z,101165.34
2018-07-28T01:24:09.892Z,101160.86
2018-07-28T01:26:38.574Z,101162.77
2018-07-28T01:29:22.731Z,101154.84
2018-07-28T01:31:51.408Z,101148.42
2018-07-28T01:34:20.018Z,101150.77
2018-07-28T01:36:48.591Z,101144.66
2018-07-28T01:39:17.975Z,101081.66
2018-07-28T01:41:46.532Z,101125.27
2018-07-28T01:44:15.140Z,101136.30
2018-07-28T01:46:43.779Z,101133.06
2018-07-28T01:49:12.411Z,101134.03
2018-07-28T01:51:41.542Z,101137.58
2018-07-28T01:54:10.139Z,101136.72
2018-07-28T01:56:38.772Z,101141.13
2018-07-28T01:59:07.303Z,101126.23
2018-07-28T02:01:35.939Z,101128.24
2018-07-28T02:04:05.238Z,101128.92
2018-07-28T02:06:33.821Z,101124.41
2018-07-28T02:09:02.506Z,101121.23
2018-07-28T02:11:31.000Z,101123.27
2018-07-28T02:13:59.593Z,101120.03
2018-07-28T02:16:28.258Z,101117.55
2018-07-28T02:18:56.786Z,101121.79
2018-07-28T02:21:25.421Z,101117.06
2018-07-28T02:23:54.106Z,101113.66
2018-07-28T02:26:22.790Z,101106.08
2018-07-28T02:28:51.447Z,101101.77
2018-07-28T02:31:20.064Z,101097.45
2018-07-28T02:33:48.563Z,101098.17
2018-07-28T02:36:17.175Z,101079.69
2018-07-28T02:38:45.811Z,101083.38
2018-07-28T02:41:14.446Z,101085.06
2018-07-28T02:43:43.077Z,101077.37
2018-07-28T02:46:11.707Z,101074.13
2018-07-28T02:48:40.447Z,101065.33
2018-07-28T02:51:09.034Z,101065.96
2018-07-28T02:53:41.766Z,101063.93
2018-07-28T02:56:10.496Z,101063.49
2018-07-28T02:58:39.128Z,101061.23
2018-07-28T03:01:08.461Z,101051.96
2018-07-28T03:03:37.474Z,101046.38
2018-07-28T03:06:06.047Z,101046.43
2018-07-28T03:08:34.706Z,101041.98
2018-07-28T03:11:03.537Z,101042.33
2018-07-28T03:13:32.022Z,101040.36
2018-07-28T03:16:00.695Z,101040.36
2018-07-28T03:18:29.332Z,101034.55
2018-07-28T03:20:57.965Z,101038.87
2018-07-28T03:23:26.654Z,101030.02
2018-07-28T03:25:55.848Z,101036.12
2018-07-28T03:28:24.412Z,101040.15
2018-07-28T03:30:53.012Z,101036.12
2018-07-28T03:33:21.649Z,101028.05
2018-07-28T03:35:50.281Z,101033.77
2018-07-28T03:38:19.785Z,101023.36
2018-07-28T03:40:48.471Z,101023.08
2018-07-28T03:43:16.974Z,101022.45
2018-07-28T03:45:45.522Z,101017.14
2018-07-28T03:48:14.070Z,101017.86
2018-07-28T03:50:42.596Z,101017.72
2018-07-28T03:53:11.255Z,101016.23
2018-07-28T03:55:40.016Z,101012.63
2018-07-28T03:58:08.565Z,101002.22
2018-07-28T04:00:37.087Z,100999.05
2018-07-28T04:03:06.024Z,100991.66
2018-07-28T04:05:34.608Z,100988.84
2018-07-28T04:08:03.127Z,100988.84
2018-07-28T04:10:31.702Z,100991.95
2018-07-28T04:13:00.252Z,100986.58
2018-07-28T04:15:28.766Z,100971.73
2018-07-28T04:17:57.421Z,100984.03
2018-07-28T04:20:27.179Z,100973.52
2018-07-28T04:22:56.221Z,100969.39
2018-07-28T04:25:25.156Z,100963.04
2018-07-28T04:27:53.901Z,100968.38
2018-07-28T04:30:22.484Z,100968.69
2018-07-28T04:32:51.169Z,100966.27
2018-07-28T04:35:19.751Z,100965.53
2018-07-28T04:37:48.442Z,100964.61
2018-07-28T04:40:16.966Z,100960.35
2018-07-28T04:42:46.319Z,100950.34
2018-07-28T04:45:14.901Z,100942.70
2018-07-28T04:47:43.394Z,100945.48
2018-07-28T04:50:12.170Z,100948.28
2018-07-28T04:52:40.804Z,100943.97
2018-07-28T04:55:09.439Z,100936.02
2018-07-28T04:57:37.963Z,100938.78
2018-07-28T05:00:07.014Z,100936.82
2018-07-28T05:02:35.642Z,100933.36
2018-07-28T05:05:04.589Z,100934.47
2018-07-28T05:07:33.395Z,100927.63
2018-07-28T05:10:01.859Z,100933.41
2018-07-28T05:12:30.442Z,100928.06
2018-07-28T05:14:59.024Z,100923.06
2018-07-28T05:17:27.785Z,100916.89
2018-07-28T05:19:56.306Z,100910.87
2018-07-28T05:22:24.907Z,100915.51
2018-07-28T05:24:53.499Z,100910.50
2018-07-28T05:27:22.454Z,100914.89
2018-07-28T05:29:51.095Z,100909.89
2018-07-28T05:32:19.766Z,100918.37
2018-07-28T05:34:48.349Z,100910.30
2018-07-28T05:37:16.975Z,100905.98
2018-07-28T05:39:45.574Z,100895.20
2018-07-28T05:42:14.193Z,100887.81
2018-07-28T05:44:42.739Z,100881.44
2018-07-28T05:47:11.334Z,100880.17
2018-07-28T05:49:39.818Z,100879.19
2018-07-28T05:52:08.507Z,100864.50
2018-07-28T05:54:37.171Z,100867.73
2018-07-28T05:57:05.690Z,100863.71
2018-07-28T05:59:34.261Z,100859.66
2018-07-28T06:02:03.338Z,100862.39
2018-07-28T06:04:32.015Z,100858.68
2018-07-28T06:07:00.597Z,100852.94
2018-07-28T06:09:29.284Z,100852.27
2018-07-28T06:11:58.284Z,100854.00
2018-07-28T06:14:27.065Z,100854.32
2018-07-28T06:16:55.662Z,100850.61
2018-07-28T06:19:24.332Z,100845.55
2018-07-28T06:21:52.956Z,100840.64
2018-07-28T06:24:21.601Z,100847.22
2018-07-28T06:26:50.387Z,100839.44
2018-07-28T06:29:18.970Z,100842.13
2018-07-28T06:31:47.755Z,100840.74
2018-07-28T06:34:16.545Z,100838.73
2018-07-28T06:36:45.163Z,100835.31
2018-07-28T06:39:14.837Z,100835.33
2018-07-28T06:41:43.422Z,100840.03
2018-07-28T06:44:12.012Z,100825.95
2018-07-28T06:46:40.650Z,100817.93
2018-07-28T06:49:10.139Z,100822.14
2018-07-28T06:51:38.878Z,100820.29
2018-07-28T06:54:07.730Z,100817.08
2018-07-28T06:56:36.350Z,100813.84
2018-07-28T06:59:05.141Z,100810.14
2018-07-28T07:01:33.827Z,100811.81
2018-07-28T07:04:02.353Z,100807.90
2018-07-28T07:06:30.919Z,100811.96
2018-07-28T07:08:59.571Z,100797.86
2018-07-28T07:11:28.563Z,100814.10
2018-07-28T07:13:57.215Z,100801.84
2018-07-28T07:16:25.930Z,100808.26
2018-07-28T07:18:54.494Z,100808.90
2018-07-28T07:21:23.039Z,100807.78
2018-07-28T07:23:51.634Z,100815.83
2018-07-28T07:26:20.267Z,100806.55
2018-07-28T07:28:48.865Z,100801.53
2018-07-28T07:31:17.535Z,100797.66
2018-07-28T07:33:46.220Z,100790.34
2018-07-28T07:36:15.065Z,100793.05
2018-07-28T07:38:43.663Z,100784.78
2018-07-28T07:41:12.380Z,100783.88
2018-07-28T07:43:40.888Z,100774.16
2018-07-28T07:46:09.526Z,100783.55
2018-07-28T07:48:38.482Z,100771.54
2018-07-28T07:51:07.120Z,100766.98
2018-07-28T07:53:35.657Z,100762.73
2018-07-28T07:56:04.286Z,100762.23
2018-07-28T07:58:33.026Z,100758.84
2018-07-28T08:01:01.594Z,100761.88
2018-07-28T08:03:30.241Z,100763.84
2018-07-28T08:05:58.891Z,100761.42
2018-07-28T08:08:27.478Z,100758.33
2018-07-28T08:10:56.243Z,100750.73
2018-07-28T08:13:24.931Z,100752.63
2018-07-28T08:15:53.579Z,100744.98
2018-07-28T08:18:22.238Z,100748.45
2018-07-28T08:20:51.866Z,100747.31
2018-07-28T08:23:20.387Z,100745.22
2018-07-28T08:25:49.229Z,100743.44
2018-07-28T08:28:17.894Z,100741.66
2018-07-28T08:30:46.434Z,100744.38
2018-07-28T08:33:15.033Z,100740.42
2018-07-28T08:35:43.726Z,100734.11
2018-07-28T08:38:12.345Z,100724.70
2018-07-28T08:40:40.982Z,100719.33
2018-07-28T08:43:09.620Z,100716.77
2018-07-28T08:45:38.196Z,100712.03
2018-07-28T08:48:07.023Z,100711.55
2018-07-28T08:50:35.627Z,100719.06
2018-07-28T08:53:04.354Z,100704.89
2018-07-28T08:55:32.886Z,100701.77
2018-07-28T08:58:01.479Z,100700.27
2018-07-28T09:00:30.563Z,100702.01
2018-07-28T09:02:59.198Z,100694.78
2018-07-28T09:05:27.854Z,100687.38
2018-07-28T09:07:56.467Z,100693.08
2018-07-28T09:10:25.152Z,100684.66
2018-07-28T09:12:53.696Z,100685.55
2018-07-28T09:15:22.318Z,100681.13
2018-07-28T09:17:51.503Z,100674.44
2018-07-28T09:20:20.808Z,100674.63
2018-07-28T09:22:49.479Z,100675.39
2018-07-28T09:25:18.186Z,100671.38
2018-07-28T09:27:47.486Z,100667.63
2018-07-28T09:30:16.113Z,100664.70
2018-07-28T09:32:44.752Z,100666.37
2018-07-28T09:35:14.054Z,100661.34
2018-07-28T09:37:42.935Z,100659.05
2018-07-28T09:40:11.494Z,100654.24
2018-07-28T09:42:40.110Z,100656.86
2018-07-28T09:45:08.780Z,100654.97
2018-07-28T09:47:37.378Z,100647.09
2018-07-28T09:50:06.270Z,100636.52
2018-07-28T09:52:34.993Z,100634.83
2018-07-28T09:55:03.612Z,100644.59
2018-07-28T09:57:32.171Z,100640.80
2018-07-28T10:00:00.835Z,100643.24
2018-07-28T10:02:30.307Z,100633.34
2018-07-28T10:05:00.032Z,100635.13
2018-07-28T10:07:28.669Z,100625.46
2018-07-28T10:09:57.248Z,100621.39
2018-07-28T10:12:25.829Z,100622.22
2018-07-28T10:14:55.887Z,100632.41
2018-07-28T10:17:25.134Z,100633.68
2018-07-28T10:19:53.833Z,100626.34
2018-07-28T10:22:22.349Z,100619.94
2018-07-28T10:24:51.138Z,100614.80
2018-07-28T10:27:19.782Z,100616.69
2018-07-28T10:29:48.406Z,100602.23
2018-07-28T10:32:16.929Z,100612.09
2018-07-28T10:34:45.472Z,100598.23
2018-07-28T10:37:13.990Z,100592.60
2018-07-28T10:39:42.636Z,100590.70
2018-07-28T10:42:11.218Z,100585.34
2018-07-28T10:44:39.739Z,100585.81
2018-07-28T10:47:09.101Z,100577.55
2018-07-28T10:49:37.694Z,100591.65
2018-07-28T10:52:06.803Z,100578.00
2018-07-28T10:54:35.364Z,100576.61
2018-07-28T10:57:03.943Z,100564.55
2018-07-28T10:59:32.630Z,100567.61
2018-07-28T11:02:01.973Z,100570.09
2018-07-28T11:04:30.614Z,100570.27
2018-07-28T11:06:59.300Z,100567.03
2018-07-28T11:09:28.443Z,100570.56
2018-07-28T11:11:57.079Z,100556.11
2018-07-28T11:14:25.664Z,100558.06
2018-07-28T11:16:54.190Z,100549.02
2018-07-28T11:19:22.829Z,100547.22
2018-07-28T11:21:51.456Z,100539.42
2018-07-28T11:24:20.200Z,100538.34
2018-07-28T11:26:48.885Z,100531.95
2018-07-28T11:29:17.673Z,100532.83
2018-07-28T11:31:57.670Z,100525.28
2018-07-28T11:34:37.522Z,100528.30
2018-07-28T11:39:22.858Z,100525.52
2018-07-28T11:42:02.368Z,100511.70
2018-07-28T11:44:42.146Z,100510.83
2018-07-28T11:47:11.038Z,100499.98
2018-07-28T11:49:39.663Z,100494.70
2018-07-28T11:52:08.404Z,100487.80
2018-07-28T11:54:37.098Z,100486.43
2018-07-28T11:57:05.708Z,100480.89
2018-07-28T11:59:35.279Z,100481.14
2018-07-28T12:02:04.599Z,100473.11
2018-07-28T12:04:33.265Z,100470.46
2018-07-28T12:07:02.320Z,100464.20
2018-07-28T12:09:31.699Z,100471.81
2018-07-28T12:12:00.246Z,100465.05
2018-07-28T12:14:28.787Z,100472.49
2018-07-28T12:16:57.406Z,100478.18
2018-07-28T12:19:25.985Z,100474.05
2018-07-28T12:21:54.573Z,100476.69
2018-07-28T12:24:23.258Z,100482.92
2018-07-28T12:26:51.882Z,100479.15
2018-07-28T12:29:20.406Z,100476.56
2018-07-28T12:31:48.929Z,100469.66
2018-07-28T12:34:17.590Z,100486.66
2018-07-28T12:36:46.173Z,100504.08
2018-07-28T12:39:14.713Z,100533.31
2018-07-28T12:41:43.282Z,100527.12
2018-07-28T12:44:12.006Z,100507.88
2018-07-28T12:46:40.551Z,100510.25
2018-07-28T12:49:09.141Z,100515.13
2018-07-28T12:51:37.773Z,100510.92
2018-07-28T12:54:06.395Z,100498.23
2018-07-28T12:56:34.999Z,100493.56
2018-07-28T12:59:03.775Z,100490.59
2018-07-28T13:01:32.398Z,100480.77
2018-07-28T13:04:00.961Z,100480.13
2018-07-28T13:06:29.580Z,100480.77
2018-07-28T13:08:58.279Z,100476.59
2018-07-28T13:11:26.875Z,100480.37
2018-07-28T13:13:55.531Z,100478.77
2018-07-28T13:16:24.163Z,100502.44
2018-07-28T13:18:52.730Z,100510.89
2018-07-28T13:21:21.384Z,100530.02
2018-07-28T13:23:50.078Z,100553.89
2018-07-28T13:26:18.732Z,100546.05
2018-07-28T13:28:47.335Z,100556.44
2018-07-28T13:31:16.019Z,100550.98
2018-07-28T13:33:44.618Z,100559.55
2018-07-28T13:36:13.290Z,100555.00
2018-07-28T13:38:42.486Z,100545.89
2018-07-28T13:41:11.171Z,100534.79
2018-07-28T13:43:39.804Z,100540.72
2018-07-28T13:46:08.440Z,100541.93
2018-07-28T13:48:37.476Z,100537.02
2018-07-28T13:51:06.220Z,100530.83
2018-07-28T13:53:36.083Z,100530.64
2018-07-28T13:56:04.820Z,100522.53
2018-07-28T13:58:33.505Z,100506.14
2018-07-28T14:01:02.158Z,100496.23
2018-07-28T14:03:30.876Z,100503.37
2018-07-28T14:05:59.428Z,100497.68
2018-07-28T14:08:27.988Z,100493.47
2018-07-28T14:10:56.551Z,100494.83
2018-07-28T14:13:25.207Z,100484.33
2018-07-28T14:15:53.938Z,100477.65
2018-07-28T14:18:22.671Z,100479.08
2018-07-28T14:20:51.365Z,100486.71
2018-07-28T14:23:20.162Z,100491.55
2018-07-28T14:25:48.864Z,100491.73
2018-07-28T14:28:17.432Z,100494.25
2018-07-28T14:30:46.060Z,100491.48
2018-07-28T14:33:16.778Z,100486.55
2018-07-28T14:35:45.423Z,100493.16
2018-07-28T14:38:14.023Z,100490.64
2018-07-28T14:40:42.589Z,100489.70
2018-07-28T14:43:11.172Z,100478.45
2018-07-28T14:45:39.789Z,100468.78
2018-07-28T14:48:09.246Z,100456.72
2018-07-28T14:50:37.967Z,100446.46
2018-07-28T14:53:07.155Z,100436.53
2018-07-28T14:55:35.997Z,100435.56
2018-07-28T14:58:04.723Z,100412.52
2018-07-28T15:00:33.255Z,100409.31
2018-07-28T15:03:02.499Z,100396.80
2018-07-28T15:05:31.389Z,100387.48
2018-07-28T15:08:00.004Z,100373.53
2018-07-28T15:10:29.231Z,100371.83
2018-07-28T15:12:57.912Z,100380.13
2018-07-28T15:15:26.455Z,100384.21
2018-07-28T15:17:55.281Z,100317.14
2018-07-28T15:20:24.015Z,100359.70
2018-07-28T15:22:52.522Z,100368.47
2018-07-28T15:25:21.075Z,100369.42
2018-07-28T15:27:49.647Z,100387.00
2018-07-28T15:30:18.353Z,100401.34
2018-07-28T15:32:46.987Z,100401.59
2018-07-28T15:35:15.556Z,100404.13
2018-07-28T15:37:44.550Z,100396.45
2018-07-28T15:40:13.110Z,100380.72
2018-07-28T15:42:41.772Z,100381.81
2018-07-28T15:45:10.417Z,100380.92
2018-07-28T15:47:39.040Z,100381.15
2018-07-28T15:50:07.543Z,100387.62
2018-07-28T15:52:36.308Z,100382.47
2018-07-28T15:55:04.988Z,100380.38
2018-07-28T15:57:33.786Z,100387.50
2018-07-28T16:00:02.468Z,100384.33
2018-07-28T16:02:30.970Z,100376.30
2018-07-28T16:04:59.638Z,100375.25
2018-07-28T16:07:28.643Z,100377.38
2018-07-28T16:09:57.366Z,100372.63
2018-07-28T16:12:25.948Z,100368.83
2018-07-28T16:14:54.575Z,100370.81
2018-07-28T16:17:23.774Z,100378.85
2018-07-28T16:19:52.810Z,100378.16
2018-07-28T16:22:21.453Z,100364.87
2018-07-28T16:24:50.288Z,100367.11
2018-07-28T16:27:18.932Z,100363.86
2018-07-28T16:29:47.612Z,100374.08
2018-07-28T16:32:19.126Z,100380.91
2018-07-28T16:34:47.748Z,100376.89
2018-07-28T16:37:16.863Z,100368.84
2018-07-28T16:39:45.586Z,100368.39
2018-07-28T16:42:14.166Z,100363.52
2018-07-28T16:44:42.778Z,100371.32
2018-07-28T16:47:11.752Z,100372.30
2018-07-28T16:49:40.727Z,100372.82
2018-07-28T16:52:09.322Z,100375.70
2018-07-28T16:54:37.902Z,100376.42
2018-07-28T16:57:06.424Z,100379.48
2018-07-28T16:59:34.960Z,100384.91
2018-07-28T17:02:03.693Z,100394.79
2018-07-28T17:04:32.187Z,100394.28
2018-07-28T17:07:00.980Z,100399.31
2018-07-28T17:09:29.643Z,100399.89
2018-07-28T17:11:58.241Z,100394.81
2018-07-28T17:14:26.964Z,100401.32
2018-07-28T17:16:55.579Z,100396.44
2018-07-28T17:19:24.740Z,100397.25
2018-07-28T17:21:53.381Z,100392.17
2018-07-28T17:24:23.358Z,100387.45
2018-07-28T17:26:51.958Z,100384.25
2018-07-28T17:29:20.666Z,100374.95
2018-07-28T17:31:49.305Z,100372.40
2018-07-28T17:34:17.874Z,100371.42
2018-07-28T17:36:46.517Z,100375.87
2018-07-28T17:39:15.198Z,100364.45
2018-07-28T17:41:44.226Z,100366.89
2018-07-28T17:44:12.880Z,100361.40
2018-07-28T17:46:41.570Z,100368.52
2018-07-28T17:49:10.251Z,100364.77
2018-07-28T17:51:38.938Z,100364.38
2018-07-28T17:54:07.622Z,100366.70
2018-07-28T17:56:36.174Z,100349.78
2018-07-28T17:59:05.094Z,100353.92
2018-07-28T18:01:33.677Z,100347.64
2018-07-28T18:04:02.422Z,100342.34
2018-07-28T18:06:31.781Z,100350.20
2018-07-28T18:09:00.448Z,100342.91
2018-07-28T18:11:29.135Z,100340.44
2018-07-28T18:13:57.639Z,100340.48
2018-07-28T18:16:26.243Z,100336.17
2018-07-28T18:18:54.810Z,100334.47
2018-07-28T18:21:23.422Z,100328.80
2018-07-28T18:24:06.444Z,100326.57
2018-07-28T18:26:35.077Z,100332.08
2018-07-28T18:29:03.654Z,100336.36
2018-07-28T18:31:32.678Z,100326.47
2018-07-28T18:34:01.537Z,100328.27
2018-07-28T18:36:30.196Z,100329.39
2018-07-28T18:38:58.828Z,100319.31
2018-07-28T18:41:27.495Z,100323.05
2018-07-28T18:43:56.176Z,100319.05
2018-07-28T18:46:24.719Z,100324.83
2018-07-28T18:48:53.326Z,100323.19
2018-07-28T18:51:21.867Z,100315.57
2018-07-28T18:53:50.507Z,100306.34
2018-07-28T18:56:19.089Z,100310.77
2018-07-28T18:58:47.673Z,100315.20
2018-07-28T19:01:16.256Z,100312.83
2018-07-28T19:03:45.454Z,100312.36
2018-07-28T19:06:14.139Z,100313.26
2018-07-28T19:08:42.724Z,100306.86
2018-07-28T19:11:11.409Z,100312.45
2018-07-28T19:13:45.313Z,100311.34
2018-07-28T19:16:13.914Z,100309.64
2018-07-28T19:18:47.776Z,100312.89
2018-07-28T19:21:16.490Z,100311.11
2018-07-28T19:23:50.587Z,100317.73
2018-07-28T19:26:19.293Z,100318.28
2018-07-28T19:28:53.299Z,100322.88
2018-07-28T19:31:21.839Z,100329.02
2018-07-28T19:33:50.568Z,100330.91
2018-07-28T19:36:24.320Z,100329.97
2018-07-28T19:38:52.955Z,100337.09
2018-07-28T19:41:21.641Z,100341.69
2018-07-28T19:43:50.328Z,100340.88
2018-07-28T19:46:18.952Z,100355.28
2018-07-28T19:48:47.481Z,100357.48
2018-07-28T19:51:16.177Z,100358.02
2018-07-28T19:53:44.965Z,100352.48
2018-07-28T19:56:13.753Z,100351.16
2018-07-28T19:58:42.439Z,100353.22
2018-07-28T20:01:10.942Z,100359.33
2018-07-28T20:03:39.603Z,100361.03
2018-07-28T20:06:08.289Z,100367.46
2018-07-28T20:08:36.975Z,100360.03
2018-07-28T20:11:05.661Z,100363.79
2018-07-28T20:13:34.203Z,100351.17
2018-07-28T20:16:02.767Z,100359.73
2018-07-28T20:18:31.459Z,100359.09
2018-07-28T20:21:00.160Z,100355.72
2018-07-28T20:23:28.708Z,100359.41
2018-07-28T20:25:57.306Z,100361.47
2018-07-28T20:28:25.847Z,100358.11
2018-07-28T20:30:54.426Z,100360.13
2018-07-28T20:33:23.008Z,100356.97
2018-07-28T20:35:51.855Z,100358.48
2018-07-28T20:38:20.482Z,100358.13
2018-07-28T20:40:49.120Z,100369.10
2018-07-28T20:43:17.814Z,100366.58
2018-07-28T20:45:46.439Z,100367.60
2018-07-28T20:48:15.007Z,100361.20
2018-07-28T20:50:43.601Z,100361.70
2018-07-28T20:53:12.123Z,100362.58
2018-07-28T20:55:40.767Z,100355.84
2018-07-28T20:58:09.349Z,100365.44
2018-07-28T21:00:37.934Z,100361.23
2018-07-28T21:03:06.869Z,100363.94
2018-07-28T21:05:35.634Z,100359.39
2018-07-28T21:08:04.958Z,100360.21
2018-07-28T21:10:33.538Z,100359.55
2018-07-28T21:13:02.288Z,100355.50
2018-07-28T21:15:30.867Z,100358.20
2018-07-28T21:17:59.378Z,100360.21
2018-07-28T21:20:28.002Z,100368.66
2018-07-28T21:22:56.491Z,100355.16
2018-07-28T21:25:25.005Z,100352.81
2018-07-28T21:27:53.668Z,100346.75
2018-07-28T21:30:22.259Z,100341.38
2018-07-28T21:32:50.791Z,100332.60
2018-07-28T21:35:19.416Z,100336.33
2018-07-28T21:37:48.158Z,100338.34
2018-07-28T21:40:16.898Z,100332.61
2018-07-28T21:42:45.401Z,100339.35
2018-07-28T21:45:13.995Z,100339.22
2018-07-28T21:47:42.531Z,100341.77
2018-07-28T21:50:11.092Z,100350.84
2018-07-28T21:52:39.658Z,100354.91
2018-07-28T21:55:08.295Z,100349.83
2018-07-28T21:57:36.859Z,100356.23
2018-07-28T22:00:07.763Z,100365.66
2018-07-28T22:02:36.576Z,100362.66
2018-07-28T22:05:05.311Z,100363.64
2018-07-28T22:07:34.019Z,100365.84
2018-07-28T22:10:02.635Z,100372.26
2018-07-28T22:12:31.241Z,100367.38
2018-07-28T22:14:59.823Z,100364.16
2018-07-28T22:17:28.460Z,100374.79
2018-07-28T22:19:57.002Z,100369.40
2018-07-28T22:22:25.674Z,100377.48
2018-07-28T22:24:54.359Z,100378.48
2018-07-28T22:27:22.903Z,100371.75
2018-07-28T22:29:51.526Z,100361.30
2018-07-28T22:32:20.151Z,100367.03
2018-07-28T22:34:48.919Z,100369.73
2018-07-28T22:37:17.584Z,100362.14
2018-07-28T22:39:46.315Z,100365.70
2018-07-28T22:42:14.940Z,100365.67
2018-07-28T22:44:43.474Z,100360.29
2018-07-28T22:47:12.062Z,100359.28
2018-07-28T22:49:40.587Z,100355.91
2018-07-28T22:52:09.235Z,100361.63
2018-07-28T22:54:38.499Z,100360.61
2018-07-28T22:57:07.166Z,100365.67
2018-07-28T22:59:35.851Z,100364.98
2018-07-28T23:02:04.382Z,100368.86
2018-07-28T23:04:32.943Z,100360.95
2018-07-28T23:07:01.692Z,100362.13
2018-07-28T23:09:30.229Z,100355.86
2018-07-28T23:11:58.868Z,100351.14
2018-07-28T23:14:27.399Z,100354.85
2018-07-28T23:16:55.978Z,100354.16
2018-07-28T23:19:24.551Z,100354.16
2018-07-28T23:21:53.097Z,100365.27
2018-07-28T23:24:21.582Z,100365.92
2018-07-28T23:26:50.243Z,100360.54
2018-07-28T23:29:18.883Z,100367.60
2018-07-28T23:31:47.532Z,100365.92
2018-07-28T23:34:16.147Z,100361.89
2018-07-28T23:36:44.740Z,100365.92
2018-07-28T23:39:13.285Z,100366.91
2018-07-28T23:41:41.923Z,100364.55
2018-07-28T23:44:10.549Z,100368.25
2018-07-28T23:46:39.234Z,100373.64
2018-07-28T23:49:07.817Z,100366.22
2018-07-28T23:51:36.447Z,100368.91
2018-07-28T23:54:05.085Z,100370.58
2018-07-28T23:56:33.831Z,100362.67
2018-07-28T23:59:02.567Z,100368.22
